Time;durP1;ratioP1;P1;durP2;ratioP2;P2;SDS_P1;SDS_P2;PMS_P1;PMS_P2;Temp;Humidity;BMP_temperature;BMP_pressure;BME280_temperature;BME280_humidity;BME280_pressure;Samples;Min_cycle;Max_cycle;Signal;HPM_P1;HPM_P2
2022/01/12 00:01:11;;;;;;;51.70;29.02;;;;;;;5.92;100.00;103542.22;5102160;28;20055;-67
2022/01/12 00:03:37;;;;;;;51.30;27.20;;;;;;;6.19;100.00;103532.59;5106659;28;20110;-68
2022/01/12 00:06:04;;;;;;;52.78;27.33;;;;;;;6.13;100.00;103533.34;5106073;28;20119;-68
2022/01/12 00:08:31;;;;;;;51.38;28.52;;;;;;;6.11;100.00;103527.25;5106205;28;20034;-68
2022/01/12 00:10:57;;;;;;;46.20;25.42;;;;;;;6.13;100.00;103530.63;5106711;28;20035;-68
2022/01/12 00:13:24;;;;;;;61.92;28.20;;;;;;;6.22;100.00;103525.97;5105224;28;20036;-67
2022/01/12 00:15:50;;;;;;;52.25;26.80;;;;;;;6.28;100.00;103508.00;5102512;28;20077;-68
2022/01/12 00:18:15;;;;;;;45.38;23.42;;;;;;;6.16;100.00;103499.47;5104916;28;20493;-67
2022/01/12 00:20:42;;;;;;;44.33;24.38;;;;;;;6.22;100.00;103504.16;5105528;28;20031;-67
2022/01/12 00:23:08;;;;;;;45.90;24.60;;;;;;;6.10;100.00;103505.66;5105474;28;20595;-67
2022/01/12 00:25:55;;;;;;;45.33;24.33;;;;;;;6.09;100.00;103506.69;5106641;28;20081;-68
2022/01/12 00:33:52;;;;;;;38.03;23.30;;;;;;;6.23;100.00;103517.59;5106398;28;20046;-68
2022/01/12 00:36:17;;;;;;;37.72;20.83;;;;;;;6.30;100.00;103522.31;5072927;28;20063;-67
2022/01/12 00:38:44;;;;;;;37.95;21.67;;;;;;;6.35;100.00;103526.16;5106199;28;20067;-68
2022/01/12 00:41:09;;;;;;;41.15;22.80;;;;;;;6.22;100.00;103545.88;5103991;28;20031;-68
2022/01/12 00:43:37;;;;;;;34.58;20.58;;;;;;;6.29;100.00;103528.78;5105875;28;20031;-68
2022/01/12 00:46:03;;;;;;;33.35;21.17;;;;;;;6.16;100.00;103532.97;5103084;28;20114;-67
2022/01/12 00:48:28;;;;;;;39.17;20.15;;;;;;;6.14;100.00;103529.59;5106423;28;20102;-67
2022/01/12 00:50:55;;;;;;;40.35;21.67;;;;;;;6.25;100.00;103531.03;5105633;28;20496;-67
2022/01/12 00:53:20;;;;;;;33.67;19.60;;;;;;;6.39;100.00;103532.06;5070616;28;20027;-66
2022/01/12 00:55:46;;;;;;;35.70;19.95;;;;;;;6.43;100.00;103545.13;5107316;28;20030;-68
2022/01/12 00:58:11;;;;;;;33.85;20.50;;;;;;;6.48;100.00;103535.53;5104407;28;20113;-68
2022/01/12 01:00:37;;;;;;;35.60;20.40;;;;;;;6.48;100.00;103520.03;5103090;28;20369;-68
2022/01/12 01:03:03;;;;;;;30.73;19.38;;;;;;;6.31;100.00;103505.75;5105178;28;20031;-67
2022/01/12 01:05:31;;;;;;;37.00;22.17;;;;;;;6.35;100.00;103507.06;5106794;28;20512;-68
2022/01/12 01:07:57;;;;;;;38.53;21.75;;;;;;;6.32;100.00;103518.34;5104437;28;20050;-67
2022/01/12 01:13:06;;;;;;;29.73;18.73;;;;;;;6.34;100.00;103518.16;5103599;28;20073;-67
2022/01/12 01:26:25;;;;;;;31.98;19.35;;;;;;;6.29;100.00;103520.59;5106190;28;20116;-68
2022/01/12 01:28:51;;;;;;;33.92;19.23;;;;;;;6.27;100.00;103525.41;5104546;28;20428;-67
2022/01/12 01:31:16;;;;;;;31.60;19.55;;;;;;;6.23;100.00;103528.50;5102113;28;20575;-67
2022/01/12 01:33:42;;;;;;;36.17;19.65;;;;;;;6.26;100.00;103532.72;5105944;28;20031;-67
2022/01/12 01:36:07;;;;;;;30.75;17.98;;;;;;;6.24;100.00;103551.97;5104773;28;20024;-67
2022/01/12 01:38:33;;;;;;;30.42;18.00;;;;;;;6.35;100.00;103566.19;5086323;28;20051;-67
2022/01/12 01:40:58;;;;;;;31.45;19.70;;;;;;;6.27;100.00;103582.63;5103011;28;20163;-67
2022/01/12 01:54:14;;;;;;;34.88;19.52;;;;;;;6.05;100.00;103628.75;5102509;28;20069;-67
2022/01/12 01:56:40;;;;;;;34.08;19.90;;;;;;;6.14;100.00;103626.84;5106246;28;20031;-68
2022/01/12 01:59:06;;;;;;;39.42;23.42;;;;;;;6.02;100.00;103637.31;5107306;28;20050;-67
2022/01/12 02:01:31;;;;;;;53.20;31.80;;;;;;;6.19;100.00;103643.47;5104045;28;20133;-67
2022/01/12 02:04:03;;;;;;;53.85;29.02;;;;;;;6.19;100.00;103636.13;5103962;28;20031;-67
2022/01/12 02:06:29;;;;;;;85.28;43.28;;;;;;;6.14;100.00;103635.84;5103311;28;20061;-68
2022/01/12 02:08:55;;;;;;;74.35;37.50;;;;;;;6.41;100.00;103633.53;5105072;28;20036;-68
2022/01/12 02:11:29;;;;;;;77.05;35.83;;;;;;;6.20;100.00;103626.94;5103426;28;20031;-67
2022/01/12 02:13:55;;;;;;;53.10;25.73;;;;;;;6.18;100.00;103634.47;5102779;28;20050;-67
2022/01/12 02:16:27;;;;;;;71.80;33.22;;;;;;;6.36;100.00;103636.84;5101642;28;20433;-67
2022/01/12 02:19:11;;;;;;;54.38;30.38;;;;;;;6.27;100.00;103637.09;5105225;28;20090;-67
2022/01/12 02:35:45;;;;;;;54.80;25.17;;;;;;;6.32;100.00;103654.59;5084251;28;20390;-66
2022/01/12 02:40:55;;;;;;;55.08;27.10;;;;;;;6.71;100.00;103669.03;5085071;28;20089;-66
2022/01/12 02:53:51;;;;;;;51.63;25.80;;;;;;;6.83;100.00;103655.78;5084010;28;20036;-66
2022/01/12 02:56:27;;;;;;;60.63;27.95;;;;;;;6.83;100.00;103663.97;5081933;28;20035;-66
2022/01/12 02:58:53;;;;;;;56.38;26.73;;;;;;;6.84;100.00;103666.50;5082433;28;20039;-67
2022/01/12 03:01:56;;;;;;;57.28;28.23;;;;;;;6.92;100.00;103660.09;5083627;28;20416;-67
2022/01/12 03:04:17;;;;;;;56.00;27.10;;;;;;;6.99;100.00;103647.41;5085783;28;20036;-67
2022/01/12 03:06:45;;;;;;;55.83;26.75;;;;;;;7.03;100.00;103647.88;5088353;28;20475;-68
2022/01/12 03:09:11;;;;;;;68.15;27.35;;;;;;;6.96;100.00;103634.97;5087808;28;20036;-68
2022/01/12 03:11:37;;;;;;;61.85;28.10;;;;;;;6.90;100.00;103632.16;5088938;28;20035;-67
2022/01/12 03:14:03;;;;;;;57.67;26.88;;;;;;;6.80;100.00;103649.66;5083985;28;20040;-67
2022/01/12 03:16:28;;;;;;;73.07;28.73;;;;;;;6.40;100.00;103661.84;5083627;28;20173;-67
2022/01/12 03:18:57;;;;;;;80.18;29.10;;;;;;;6.52;100.00;103662.22;5085716;28;20417;-68
2022/01/12 03:21:25;;;;;;;70.50;29.55;;;;;;;6.74;100.00;103668.63;5084321;28;20557;-66
2022/01/12 03:23:52;;;;;;;74.22;30.95;;;;;;;6.78;100.00;103678.97;5085023;28;20123;-66
2022/01/12 03:26:18;;;;;;;67.68;29.63;;;;;;;6.88;100.00;103675.97;5085771;28;20094;-67
2022/01/12 03:28:51;;;;;;;86.90;29.65;;;;;;;6.85;100.00;103678.25;5066543;28;20040;-67
2022/01/12 03:31:20;;;;;;;63.53;28.58;;;;;;;6.81;100.00;103688.69;5081723;28;20490;-67
2022/01/12 03:38:38;;;;;;;67.20;28.58;;;;;;;7.04;100.00;103690.47;5088011;28;20501;-67
2022/01/12 03:41:03;;;;;;;66.18;29.02;;;;;;;6.87;100.00;103690.66;5087023;28;20039;-67
2022/01/12 03:43:29;;;;;;;70.25;28.38;;;;;;;6.93;100.00;103694.50;5081630;28;20495;-67
2022/01/12 03:45:55;;;;;;;68.30;27.38;;;;;;;7.06;100.00;103693.88;5084730;28;20455;-67
2022/01/12 03:48:21;;;;;;;59.10;27.80;;;;;;;7.05;100.00;103692.16;5047272;28;20115;-67
2022/01/12 03:50:48;;;;;;;66.30;28.38;;;;;;;6.98;100.00;103686.63;5088502;28;20362;-66
2022/01/12 03:53:14;;;;;;;80.20;28.92;;;;;;;7.07;100.00;103692.84;5084669;28;20024;-66
2022/01/12 03:55:41;;;;;;;56.55;26.05;;;;;;;7.03;100.00;103688.78;5066590;28;20038;-67
2022/01/12 03:58:06;;;;;;;57.45;26.58;;;;;;;7.03;100.00;103691.50;5083789;28;20032;-66
2022/01/12 04:00:32;;;;;;;59.15;26.58;;;;;;;7.07;100.00;103685.50;5083757;28;20238;-67
2022/01/12 04:02:57;;;;;;;60.30;27.33;;;;;;;7.08;100.00;103681.72;5084844;28;20398;-67
2022/01/12 04:08:20;;;;;;;59.92;25.85;;;;;;;6.97;100.00;103665.84;5084619;28;20032;-66
2022/01/12 04:10:58;;;;;;;55.38;26.23;;;;;;;6.79;100.00;103666.22;5086692;28;20063;-67
2022/01/12 04:13:25;;;;;;;46.67;23.58;;;;;;;6.70;100.00;103676.34;5084018;28;20062;-66
2022/01/12 04:15:55;;;;;;;73.45;26.33;;;;;;;6.37;100.00;103682.13;5084145;28;20024;-66
2022/01/12 04:18:22;;;;;;;59.75;26.02;;;;;;;6.24;100.00;103693.63;5092086;28;20131;-68
2022/01/12 04:20:50;;;;;;;49.05;24.58;;;;;;;6.17;100.00;103692.69;5106472;28;20039;-67
2022/01/12 04:23:19;;;;;;;54.83;25.00;;;;;;;6.34;100.00;103695.28;5106621;28;20030;-67
2022/01/12 04:25:51;;;;;;;75.68;26.55;;;;;;;6.08;100.00;103710.09;5107245;28;20038;-68
2022/01/12 04:28:19;;;;;;;51.05;23.65;;;;;;;5.96;100.00;103706.09;5105153;28;20228;-68
2022/01/12 04:30:45;;;;;;;43.95;23.00;;;;;;;6.00;100.00;103704.72;5102278;28;20055;-68
2022/01/12 04:33:11;;;;;;;40.00;22.52;;;;;;;6.03;100.00;103702.50;5106807;28;20110;-68
2022/01/12 04:35:45;;;;;;;44.47;21.65;;;;;;;6.02;100.00;103697.25;5106730;28;20505;-68
2022/01/12 04:38:10;;;;;;;41.67;20.63;;;;;;;5.98;100.00;103685.00;5105528;28;20248;-68
2022/01/12 04:40:35;;;;;;;39.90;21.02;;;;;;;5.90;100.00;103683.13;5105501;28;20053;-68
2022/01/12 04:43:01;;;;;;;45.97;22.40;;;;;;;5.80;100.00;103688.81;5083086;28;20131;-68
2022/01/12 04:45:37;;;;;;;37.15;19.88;;;;;;;5.73;100.00;103695.19;5083148;28;20030;-68
2022/01/12 04:50:42;;;;;;;35.53;19.30;;;;;;;5.38;100.00;103708.28;5086787;28;20039;-68
2022/01/12 04:53:08;;;;;;;35.50;18.38;;;;;;;5.38;100.00;103691.94;5051647;28;20458;-68
2022/01/12 04:55:34;;;;;;;34.67;19.50;;;;;;;5.36;100.00;103694.84;5084001;28;20028;-68
2022/01/12 04:58:00;;;;;;;74.88;21.73;;;;;;;5.26;100.00;103689.66;5082242;28;20120;-68
2022/01/12 05:00:26;;;;;;;33.08;18.05;;;;;;;5.30;100.00;103701.03;5080301;28;20035;-67
2022/01/12 05:13:43;;;;;;;35.20;18.25;;;;;;;5.01;100.00;103710.63;5101167;28;20641;-68
2022/01/12 05:16:11;;;;;;;36.30;18.85;;;;;;;4.91;100.00;103712.69;5087791;28;20541;-68
2022/01/12 05:18:38;;;;;;;31.65;17.48;;;;;;;4.78;100.00;103714.06;5083092;28;20048;-68
2022/01/12 05:21:04;;;;;;;35.05;18.58;;;;;;;4.83;100.00;103712.72;5084861;28;20024;-68
2022/01/12 05:23:30;;;;;;;33.97;18.00;;;;;;;4.74;100.00;103718.16;5082071;28;20030;-68
2022/01/12 05:25:56;;;;;;;35.40;17.88;;;;;;;4.40;100.00;103724.66;5084537;28;20040;-68
2022/01/12 05:28:23;;;;;;;36.65;19.17;;;;;;;4.59;100.00;103730.75;5082080;28;20031;-68
2022/01/12 05:30:50;;;;;;;31.23;17.92;;;;;;;4.69;100.00;103727.84;5083384;28;20020;-68
2022/01/12 05:33:16;;;;;;;35.65;18.85;;;;;;;4.68;100.00;103729.72;5084209;28;20065;-68
2022/01/12 05:35:42;;;;;;;31.25;17.65;;;;;;;4.65;100.00;103740.94;5082456;28;20220;-67
2022/01/12 05:38:11;;;;;;;32.85;18.08;;;;;;;4.56;100.00;103739.25;5083245;28;20225;-68
2022/01/12 05:40:37;;;;;;;53.90;19.02;;;;;;;4.62;100.00;103745.88;5082542;28;20065;-68
2022/01/12 05:43:02;;;;;;;92.80;20.50;;;;;;;4.65;100.00;103742.81;5081501;28;20101;-67
2022/01/12 05:45:32;;;;;;;55.63;18.52;;;;;;;4.59;100.00;103744.31;5082166;28;20478;-67
2022/01/12 05:50:24;;;;;;;88.65;19.65;;;;;;;4.43;100.00;103747.91;5083987;28;20093;-67
2022/01/12 05:52:50;;;;;;;90.20;20.15;;;;;;;4.30;100.00;103747.59;5068089;28;20453;-68
2022/01/12 05:55:16;;;;;;;66.90;18.70;;;;;;;4.37;100.00;103748.59;5086589;28;20221;-68
2022/01/12 05:57:41;;;;;;;77.15;22.05;;;;;;;4.37;100.00;103754.03;5081470;28;20210;-68
2022/01/12 06:00:11;;;;;;;84.00;23.58;;;;;;;4.18;100.00;103757.91;5078550;28;20048;-68
2022/01/12 06:02:36;;;;;;;116.93;23.92;;;;;;;3.98;100.00;103765.50;5083475;28;20034;-68
2022/01/12 06:05:03;;;;;;;153.52;24.50;;;;;;;3.74;100.00;103775.28;5082739;28;20020;-67
2022/01/12 06:07:28;;;;;;;170.13;23.75;;;;;;;3.80;100.00;103769.19;5083960;28;20101;-68
2022/01/12 06:09:54;;;;;;;146.13;24.58;;;;;;;3.84;100.00;103775.16;5085120;28;20111;-67
2022/01/12 06:12:19;;;;;;;298.13;30.77;;;;;;;3.63;100.00;103787.28;5085460;28;20059;-68
2022/01/12 06:14:45;;;;;;;160.23;26.90;;;;;;;3.72;100.00;103790.03;5079366;28;20118;-68
2022/01/12 06:17:11;;;;;;;77.50;22.70;;;;;;;3.82;100.00;103788.88;5085624;28;20414;-67
2022/01/12 06:19:37;;;;;;;98.57;22.88;;;;;;;3.87;100.00;103788.41;5084297;28;20035;-67
2022/01/12 06:22:03;;;;;;;98.63;22.23;;;;;;;3.86;100.00;103792.13;5083587;28;20573;-67
2022/01/12 06:24:29;;;;;;;74.03;19.13;;;;;;;3.84;100.00;103796.88;5081476;28;20139;-67
2022/01/12 06:26:55;;;;;;;52.83;18.17;;;;;;;3.73;100.00;103800.72;5086590;28;20082;-67
2022/01/12 06:31:49;;;;;;;36.10;17.20;;;;;;;3.60;100.00;103809.31;5083237;28;20319;-67
2022/01/12 06:34:15;;;;;;;45.15;16.98;;;;;;;3.55;100.00;103791.81;5067832;28;20020;-67
2022/01/12 06:36:40;;;;;;;53.63;17.48;;;;;;;3.42;100.00;103808.53;5086678;28;20032;-67
2022/01/12 06:39:09;;;;;;;57.85;16.90;;;;;;;3.31;100.00;103807.81;5088619;28;20133;-67
2022/01/12 06:41:39;;;;;;;69.13;17.50;;;;;;;3.16;100.00;103809.41;5085727;28;20042;-67
2022/01/12 06:44:07;;;;;;;66.22;20.00;;;;;;;3.25;100.00;103818.47;5084252;28;20031;-67
2022/01/12 06:46:34;;;;;;;55.35;18.88;;;;;;;3.08;100.00;103831.03;5083008;28;20059;-67
2022/01/12 06:49:00;;;;;;;69.28;19.23;;;;;;;3.15;100.00;103826.69;5087042;28;20028;-68
2022/01/12 06:51:26;;;;;;;48.90;19.08;;;;;;;3.22;100.00;103838.59;5087593;28;20032;-67
2022/01/12 06:53:53;;;;;;;89.05;22.45;;;;;;;3.10;100.00;103834.47;5109776;28;20076;-68
2022/01/12 06:56:19;;;;;;;69.72;22.08;;;;;;;3.15;100.00;103840.25;5098496;28;20085;-67
2022/01/12 06:58:44;;;;;;;190.30;25.75;;;;;;;3.11;100.00;103850.53;5085573;28;20032;-68
2022/01/12 07:01:10;;;;;;;63.70;20.58;;;;;;;3.25;100.00;103857.25;5083934;28;20104;-67
2022/01/12 07:03:36;;;;;;;54.88;19.15;;;;;;;3.39;100.00;103854.97;5089080;28;20051;-67
2022/01/12 07:06:01;;;;;;;61.65;18.85;;;;;;;3.40;100.00;103853.97;5108330;28;20465;-67
2022/01/12 07:08:27;;;;;;;81.47;21.33;;;;;;;3.33;100.00;103853.75;5105833;28;20028;-67
2022/01/12 07:10:54;;;;;;;36.83;18.50;;;;;;;3.33;100.00;103850.19;5090547;28;20059;-67
2022/01/12 07:13:19;;;;;;;49.97;20.23;;;;;;;3.25;100.00;103851.00;5084782;28;20462;-67
2022/01/12 07:15:44;;;;;;;48.05;20.48;;;;;;;3.19;100.00;103848.91;5063861;28;20062;-67
2022/01/12 07:18:11;;;;;;;35.83;18.10;;;;;;;3.22;100.00;103851.31;5106061;28;20043;-66
2022/01/12 07:20:36;;;;;;;44.50;18.50;;;;;;;3.19;100.00;103844.31;5105470;28;20112;-67
2022/01/12 07:23:02;;;;;;;36.70;18.20;;;;;;;3.10;100.00;103842.59;5105896;28;20469;-67
2022/01/12 07:25:28;;;;;;;64.50;20.20;;;;;;;3.12;100.00;103848.69;5090225;28;20028;-67
2022/01/12 07:27:54;;;;;;;56.60;19.10;;;;;;;3.02;100.00;103847.94;5083670;28;20109;-67
2022/01/12 07:30:24;;;;;;;39.50;18.02;;;;;;;3.07;100.00;103856.47;5069631;28;20543;-67
2022/01/12 07:32:51;;;;;;;39.42;18.80;;;;;;;3.02;100.00;103856.09;5103177;28;20439;-66
2022/01/12 07:35:16;;;;;;;41.13;18.63;;;;;;;3.03;100.00;103860.47;5106662;28;20237;-67
2022/01/12 07:37:42;;;;;;;51.92;20.05;;;;;;;3.03;100.00;103857.75;5104465;28;20125;-67
2022/01/12 07:40:07;;;;;;;53.30;19.08;;;;;;;2.98;100.00;103855.53;5105106;28;20076;-67
2022/01/12 07:42:35;;;;;;;60.17;18.58;;;;;;;3.00;100.00;103860.78;5090079;28;20542;-67
2022/01/12 07:45:01;;;;;;;47.47;19.05;;;;;;;2.96;100.00;103862.13;5062834;28;20071;-67
2022/01/12 07:47:28;;;;;;;62.65;18.42;;;;;;;2.63;100.00;103861.84;5086107;28;20102;-67
2022/01/12 07:49:55;;;;;;;61.58;21.00;;;;;;;2.57;100.00;103864.16;5084430;28;20534;-67
2022/01/12 07:52:20;;;;;;;58.03;20.35;;;;;;;2.65;100.00;103884.19;5080997;28;20035;-67
2022/01/12 07:54:46;;;;;;;54.22;20.83;;;;;;;2.82;100.00;103894.19;5103695;28;20066;-67
2022/01/12 07:57:11;;;;;;;37.65;19.05;;;;;;;2.84;100.00;103892.19;5106520;28;20024;-67
2022/01/12 07:59:36;;;;;;;43.38;18.17;;;;;;;2.84;100.00;103897.59;5097312;28;20097;-67
2022/01/12 08:02:02;;;;;;;35.30;18.42;;;;;;;2.86;100.00;103901.00;5104554;28;20397;-67
2022/01/12 08:04:27;;;;;;;34.15;18.50;;;;;;;2.78;100.00;103909.03;5104253;28;20452;-67
2022/01/12 08:06:53;;;;;;;33.25;19.20;;;;;;;2.54;100.00;103915.06;5096575;28;20350;-67
2022/01/12 08:09:18;;;;;;;31.20;18.70;;;;;;;2.78;100.00;103922.59;5097040;28;20088;-67
2022/01/12 08:11:44;;;;;;;31.35;18.23;;;;;;;2.95;100.00;103918.16;5111149;28;20024;-67
2022/01/12 08:14:12;;;;;;;35.00;19.73;;;;;;;2.72;100.00;103917.78;5101111;28;20032;-66
2022/01/12 08:16:38;;;;;;;32.22;18.88;;;;;;;2.79;100.00;103921.59;5081616;28;20020;-67
2022/01/12 08:19:04;;;;;;;30.73;18.13;;;;;;;2.80;100.00;103917.03;5066104;28;20513;-67
2022/01/12 08:21:29;;;;;;;32.95;19.45;;;;;;;2.90;100.00;103928.63;5102702;28;20039;-67
2022/01/12 08:23:55;;;;;;;28.27;18.30;;;;;;;2.90;100.00;103917.78;5080731;28;20551;-67
2022/01/12 08:26:20;;;;;;;32.67;19.27;;;;;;;2.90;100.00;103920.50;5086730;28;20023;-67
2022/01/12 08:28:46;;;;;;;37.33;21.08;;;;;;;2.97;100.00;103928.84;5081483;28;20032;-67
2022/01/12 08:31:11;;;;;;;33.80;20.50;;;;;;;2.83;100.00;103933.81;5098601;28;20027;-67
2022/01/12 08:33:38;;;;;;;32.45;19.30;;;;;;;2.92;100.00;103934.78;5105297;28;20108;-66
2022/01/12 08:36:04;;;;;;;29.65;18.35;;;;;;;3.00;100.00;103950.22;5104432;28;20027;-67
2022/01/12 08:38:30;;;;;;;28.05;17.67;;;;;;;2.84;100.00;103946.38;5104664;28;20011;-67
2022/01/12 08:40:56;;;;;;;29.23;16.77;;;;;;;2.82;100.00;103948.38;5103639;28;20031;-67
2022/01/12 08:43:22;;;;;;;25.88;15.90;;;;;;;2.60;100.00;103949.66;5100282;28;20358;-67
2022/01/12 08:45:48;;;;;;;27.85;14.27;;;;;;;2.57;100.00;103956.25;5101870;28;20061;-67
2022/01/12 08:48:13;;;;;;;74.30;13.23;;;;;;;2.41;100.00;103961.50;5105411;28;20481;-67
2022/01/12 08:50:40;;;;;;;97.53;14.30;;;;;;;2.45;100.00;103962.88;5104992;28;20401;-67
2022/01/12 08:53:06;;;;;;;66.80;14.10;;;;;;;2.58;100.00;103955.25;5103682;28;20039;-67
2022/01/12 08:55:32;;;;;;;46.78;13.38;;;;;;;2.60;100.00;103957.78;5091369;28;20052;-67
2022/01/12 08:57:58;;;;;;;100.18;15.50;;;;;;;2.64;100.00;103961.03;5081155;28;20028;-67
2022/01/12 09:00:25;;;;;;;100.78;14.38;;;;;;;2.73;100.00;103976.41;5081791;28;20094;-66
2022/01/12 09:02:50;;;;;;;69.68;12.95;;;;;;;2.61;100.00;103988.44;5083310;28;20107;-67
2022/01/12 09:05:16;;;;;;;66.28;12.27;;;;;;;2.70;100.00;103977.53;5084264;28;20214;-67
2022/01/12 09:07:43;;;;;;;80.93;13.45;;;;;;;2.63;100.00;103981.03;5084774;28;20020;-66
2022/01/12 09:10:11;;;;;;;53.40;11.30;;;;;;;2.76;100.00;103986.94;5091482;28;20084;-67
2022/01/12 09:12:37;;;;;;;36.75;12.20;;;;;;;2.68;100.00;104000.38;5105425;28;20603;-67
2022/01/12 09:15:07;;;;;;;30.10;11.60;;;;;;;2.75;100.00;103999.63;5100292;28;20129;-67
2022/01/12 09:17:33;;;;;;;25.80;10.70;;;;;;;2.95;100.00;104004.91;5104379;28;20091;-67
2022/01/12 09:19:59;;;;;;;28.90;11.52;;;;;;;2.83;100.00;104012.41;5103407;28;20031;-68
2022/01/12 09:22:24;;;;;;;30.77;10.63;;;;;;;2.90;100.00;104010.81;5087823;28;20100;-67
2022/01/12 09:24:50;;;;;;;45.83;12.77;;;;;;;2.97;100.00;104023.72;5102135;28;20073;-67
2022/01/12 09:27:17;;;;;;;39.83;11.75;;;;;;;3.11;100.00;104028.63;5105993;28;20376;-68
2022/01/12 09:29:47;;;;;;;44.55;11.27;;;;;;;3.09;100.00;104026.06;5084131;28;20392;-67
2022/01/12 09:32:12;;;;;;;46.88;11.43;;;;;;;3.01;100.00;104017.84;5086178;28;20047;-68
2022/01/12 09:34:38;;;;;;;36.55;10.52;;;;;;;3.13;100.00;104024.78;5097936;28;20493;-67
2022/01/12 09:37:04;;;;;;;24.33;9.20;;;;;;;3.19;100.00;104026.00;5083586;28;20487;-67
2022/01/12 09:39:30;;;;;;;22.77;8.95;;;;;;;3.26;100.00;104028.94;5083786;28;20092;-68
2022/01/12 09:41:56;;;;;;;39.45;10.15;;;;;;;3.29;100.00;104028.63;5084066;28;20421;-67
2022/01/12 09:44:31;;;;;;;18.70;9.73;;;;;;;3.38;100.00;104035.84;5100420;28;20019;-68
2022/01/12 09:46:59;;;;;;;42.58;10.32;;;;;;;3.41;100.00;104040.09;5102531;28;20027;-68
2022/01/12 09:49:24;;;;;;;26.00;10.18;;;;;;;3.46;100.00;104044.06;5104599;28;20039;-68
2022/01/12 09:51:51;;;;;;;19.10;10.55;;;;;;;3.56;100.00;104038.56;5103442;28;20031;-68
2022/01/12 09:54:18;;;;;;;22.38;10.00;;;;;;;3.61;100.00;104046.22;5102190;28;20024;-68
2022/01/12 09:56:44;;;;;;;39.50;11.63;;;;;;;3.70;100.00;104045.25;5104544;28;20055;-67
2022/01/12 09:59:11;;;;;;;28.38;10.93;;;;;;;3.78;100.00;104041.78;5099479;28;20458;-68
2022/01/12 10:01:39;;;;;;;34.20;10.50;;;;;;;3.73;100.00;104057.69;5100573;28;20023;-68
2022/01/12 10:04:16;;;;;;;20.75;9.82;;;;;;;3.79;100.00;104062.47;5103173;28;20031;-68
2022/01/12 10:07:09;;;;;;;43.72;10.50;;;;;;;3.46;100.00;104056.75;5104296;28;20023;-68
2022/01/12 10:09:46;;;;;;;24.30;9.95;;;;;;;3.76;100.00;104066.34;5099692;28;20244;-67
2022/01/12 10:12:21;;;;;;;22.88;10.70;;;;;;;3.92;100.00;104071.06;5100864;28;20035;-66
2022/01/12 10:15:10;;;;;;;34.28;11.00;;;;;;;4.00;100.00;104059.38;5098104;28;20078;-66
2022/01/12 10:17:46;;;;;;;30.98;10.85;;;;;;;4.16;100.00;104069.50;5093487;28;20043;-67
2022/01/12 10:20:22;;;;;;;56.75;11.48;;;;;;;4.13;100.00;104061.69;5100738;28;20430;-66
2022/01/12 10:23:15;;;;;;;34.53;10.40;;;;;;;4.26;100.00;104059.38;5103655;28;20445;-66
2022/01/12 10:25:46;;;;;;;28.30;11.18;;;;;;;4.35;100.00;104061.16;5099586;28;20486;-67
2022/01/12 10:28:18;;;;;;;37.05;11.48;;;;;;;4.37;100.00;104059.13;5086752;28;20318;-68
2022/01/12 10:31:02;;;;;;;42.95;11.07;;;;;;;4.38;100.00;104051.84;5079673;28;20027;-67
2022/01/12 10:33:31;;;;;;;27.65;11.10;;;;;;;4.48;100.00;104049.84;5082160;28;20355;-66
2022/01/12 10:35:59;;;;;;;44.83;11.35;;;;;;;4.47;100.00;104044.56;5082054;28;20032;-67
2022/01/12 10:38:26;;;;;;;95.43;12.95;;;;;;;4.31;100.00;104059.78;5082083;28;20055;-67
2022/01/12 10:40:57;;;;;;;66.25;13.32;;;;;;;4.33;100.00;104048.72;5089881;28;20084;-67
2022/01/12 10:43:39;;;;;;;63.45;12.70;;;;;;;4.56;100.00;104046.31;5101930;28;20092;-67
2022/01/12 10:46:15;;;;;;;38.60;12.30;;;;;;;4.78;100.00;104051.13;5097921;28;20039;-67
2022/01/12 10:48:46;;;;;;;88.53;12.70;;;;;;;4.92;100.00;104052.41;5105114;28;20043;-67
2022/01/12 10:51:15;;;;;;;202.55;15.30;;;;;;;4.78;100.00;104058.47;5102299;28;20023;-68
2022/01/12 10:53:41;;;;;;;104.20;13.02;;;;;;;4.91;100.00;104067.00;5103907;28;20119;-67
2022/01/12 10:56:15;;;;;;;69.15;11.07;;;;;;;4.91;100.00;104071.59;5101025;28;20404;-67
2022/01/12 10:58:46;;;;;;;88.13;11.57;;;;;;;4.96;100.00;104061.06;5102857;28;20116;-67
2022/01/12 11:01:14;;;;;;;96.70;12.50;;;;;;;4.94;100.00;104050.34;5098993;28;20211;-68
2022/01/12 11:03:40;;;;;;;49.83;10.80;;;;;;;5.09;100.00;104047.00;5102289;28;20681;-68
2022/01/12 11:06:07;;;;;;;74.00;12.73;;;;;;;5.14;100.00;104042.75;5100239;28;20135;-68
2022/01/12 11:08:34;;;;;;;74.05;11.10;;;;;;;5.19;100.00;104046.84;5103041;28;20020;-68
2022/01/12 11:11:00;;;;;;;65.30;11.23;;;;;;;5.20;100.00;104043.09;5100681;28;20070;-68
2022/01/12 11:13:28;;;;;;;92.47;10.75;;;;;;;5.17;100.00;104033.41;5102755;28;20050;-68
2022/01/12 11:15:56;;;;;;;72.03;11.15;;;;;;;5.23;100.00;104029.16;5101468;28;20337;-68
2022/01/12 11:18:26;;;;;;;54.78;10.90;;;;;;;5.32;100.00;104022.72;5101691;28;20131;-67
2022/01/12 11:20:58;;;;;;;52.42;11.05;;;;;;;5.31;100.00;104018.28;5105605;28;20397;-67
2022/01/12 11:23:39;;;;;;;46.80;11.25;;;;;;;5.43;100.00;104021.53;5106609;28;20110;-67
2022/01/12 11:26:32;;;;;;;41.58;10.48;;;;;;;5.42;100.00;104028.84;5105329;28;20430;-66
2022/01/12 11:28:58;;;;;;;53.38;9.65;;;;;;;5.38;100.00;104015.72;5104298;28;20024;-68
2022/01/12 11:31:34;;;;;;;44.63;9.82;;;;;;;5.45;100.00;104017.63;5103889;28;20023;-66
2022/01/12 11:34:00;;;;;;;38.05;10.30;;;;;;;5.53;100.00;104003.16;5105397;28;20024;-67
2022/01/12 11:36:34;;;;;;;48.53;9.70;;;;;;;5.47;100.00;104018.28;5106986;27;20030;-67
2022/01/12 11:39:03;;;;;;;40.50;10.73;;;;;;;5.59;100.00;104018.81;5104874;27;20405;-67
2022/01/12 11:41:36;;;;;;;65.20;10.77;;;;;;;5.77;100.00;104012.31;5096742;28;20026;-67
2022/01/12 11:44:05;;;;;;;45.15;10.65;;;;;;;5.87;100.00;104007.53;5083280;28;20020;-67
2022/01/12 11:46:51;;;;;;;97.95;12.93;;;;;;;5.71;100.00;104001.09;5081758;28;20020;-67
2022/01/12 11:49:46;;;;;;;42.60;11.27;;;;;;;5.67;100.00;104007.94;5083071;28;20115;-66
2022/01/12 11:52:26;;;;;;;30.17;10.65;;;;;;;5.92;100.00;104023.38;5082536;28;20061;-67
2022/01/12 11:55:13;;;;;;;32.15;12.13;;;;;;;6.04;100.00;104013.84;5090989;28;20051;-67
2022/01/12 11:57:42;;;;;;;34.20;12.68;;;;;;;5.86;100.00;104006.69;5106480;28;20028;-67
2022/01/12 12:00:20;;;;;;;26.75;11.98;;;;;;;5.98;100.00;104007.22;5098774;28;20028;-67
2022/01/12 12:02:49;;;;;;;58.17;13.18;;;;;;;5.96;100.00;104001.09;5105765;28;20393;-67
2022/01/12 12:05:14;;;;;;;74.60;13.80;;;;;;;5.89;100.00;103995.47;5084470;28;20038;-67
2022/01/12 12:07:52;;;;;;;32.40;13.35;;;;;;;5.96;100.00;103994.78;5103381;28;20019;-67
2022/01/12 12:10:22;;;;;;;79.05;14.60;;;;;;;6.13;100.00;103996.44;5105290;28;20104;-66
2022/01/12 12:12:52;;;;;;;35.80;12.85;;;;;;;6.36;100.00;103987.50;5105570;28;20055;-67
2022/01/12 12:15:18;;;;;;;51.88;13.38;;;;;;;6.52;100.00;103979.25;5083269;28;20039;-68
2022/01/12 12:17:44;;;;;;;51.92;14.90;;;;;;;6.55;100.00;103984.38;5098949;28;20796;-68
2022/01/12 12:20:12;;;;;;;39.08;13.27;;;;;;;6.51;100.00;103983.03;5104122;28;20106;-67
2022/01/12 12:22:40;;;;;;;80.10;14.55;;;;;;;6.41;100.00;103976.94;5103724;28;20843;-68
2022/01/12 12:25:11;;;;;;;76.00;16.00;;;;;;;6.32;100.00;103976.13;5068024;28;20457;-68
2022/01/12 12:27:40;;;;;;;56.40;14.32;;;;;;;6.47;100.00;103981.69;5089978;28;20051;-68
2022/01/12 12:30:13;;;;;;;31.95;14.40;;;;;;;6.55;100.00;103981.63;5088333;28;20027;-68
2022/01/12 12:32:46;;;;;;;52.67;13.55;;;;;;;6.59;100.00;103973.94;5106763;28;20024;-67
2022/01/12 12:35:17;;;;;;;76.68;15.60;;;;;;;6.50;100.00;103969.59;5105784;28;20027;-68
2022/01/12 12:37:51;;;;;;;66.03;15.10;;;;;;;6.56;100.00;103966.13;5086552;28;20016;-67